Saint Helens, Oregon
Current Conditions -  °F | °C
As of 5:53 AM on Saturday 25 Oct 2014 (Local Time) from KSPB Reporting Station
Light Rain Light Rain  
Wind Chill: 55°   Ceiling: 9500
Heat Index: 55°   Visibility: 10mi
Dew Point: 49°   Wind: 17mph
Humidity: 80%   Direction: 250°WSW
Pressure: 29.58"   Gusts: 26mph
Location:  45.86°N, 122.81°W
Report Text: KSPB 251253Z AUTO 25015G23KT 10SM -RA FEW070 OVC095 13/09 A2958 RMK AO2 RAB42 SLP017 P0001 T01280094
Loading
Personal Weather Stations






























Interactive Weather Map
Tropical Storm Tracking
New forecast layout! Learn more

10-Day Weather Forecast

Advertisements
Track Severe Weather on mobile